createdAt,value
2023-01-07T00:02:06.828Z,3.70
2023-01-07T00:04:34.859Z,3.70
2023-01-07T00:07:02.835Z,3.70
2023-01-07T00:09:30.848Z,3.70
2023-01-07T00:11:58.810Z,3.60
2023-01-07T00:14:28.164Z,3.70
2023-01-07T00:16:56.182Z,3.70
2023-01-07T00:19:24.328Z,3.60
2023-01-07T00:21:52.305Z,3.60
2023-01-07T00:24:20.268Z,3.60
2023-01-07T00:26:48.278Z,3.60
2023-01-07T00:29:17.045Z,3.60
2023-01-07T00:31:46.500Z,3.60
2023-01-07T00:34:14.648Z,3.70
2023-01-07T00:36:44.157Z,3.70
2023-01-07T00:39:15.801Z,3.60
2023-01-07T00:42:06.381Z,3.60
2023-01-07T00:44:35.270Z,3.60
2023-01-07T00:47:04.647Z,3.60
2023-01-07T00:49:32.670Z,3.60
2023-01-07T00:52:00.681Z,3.50
2023-01-07T00:54:28.761Z,3.50
2023-01-07T00:56:56.739Z,3.50
2023-01-07T00:59:24.710Z,3.50
2023-01-07T01:01:52.808Z,3.40
2023-01-07T01:04:22.333Z,3.40
2023-01-07T01:06:50.417Z,3.40
2023-01-07T01:09:20.717Z,3.40
2023-01-07T01:11:48.774Z,3.40
2023-01-07T01:14:16.807Z,3.30
2023-01-07T01:16:44.849Z,3.40
2023-01-07T01:19:12.838Z,3.40
2023-01-07T01:21:43.023Z,3.40
2023-01-07T01:24:11.310Z,3.50
2023-01-07T01:26:39.405Z,3.40
2023-01-07T01:29:07.457Z,3.50
2023-01-07T01:31:35.461Z,3.50
2023-01-07T01:34:03.644Z,3.60
2023-01-07T01:36:31.657Z,3.60
2023-01-07T01:39:01.013Z,3.50
2023-01-07T01:41:29.302Z,3.50
2023-01-07T01:43:57.405Z,3.40
2023-01-07T01:46:34.120Z,3.40
2023-01-07T01:49:06.771Z,3.40
2023-01-07T01:51:39.946Z,3.40
2023-01-07T01:54:13.852Z,3.40
2023-01-07T01:56:44.942Z,3.40
2023-01-07T01:59:17.207Z,3.40
2023-01-07T02:01:45.505Z,3.50
2023-01-07T02:04:18.245Z,3.50
2023-01-07T02:06:51.584Z,3.40
2023-01-07T02:09:21.030Z,3.30
2023-01-07T02:11:57.481Z,3.40
2023-01-07T02:14:46.358Z,3.40
2023-01-07T02:17:24.617Z,3.40
2023-01-07T02:20:17.776Z,3.40
2023-01-07T02:23:27.218Z,3.40
2023-01-07T02:26:18.379Z,3.40
2023-01-07T02:29:31.719Z,3.40
2023-01-07T02:32:29.795Z,3.40
2023-01-07T02:35:11.412Z,3.40
2023-01-07T02:37:49.350Z,3.40
2023-01-07T02:40:23.944Z,3.30
2023-01-07T02:43:05.386Z,3.30
2023-01-07T02:45:37.224Z,3.30
2023-01-07T02:48:09.453Z,3.30
2023-01-07T02:50:37.487Z,3.30
2023-01-07T02:53:06.541Z,3.30
2023-01-07T02:55:43.754Z,3.30
2023-01-07T02:58:32.604Z,3.30
2023-01-07T03:01:21.547Z,3.30
2023-01-07T03:04:05.671Z,3.30
2023-01-07T03:06:50.309Z,3.30
2023-01-07T03:09:24.117Z,3.30
2023-01-07T03:12:01.789Z,3.30
2023-01-07T03:14:38.437Z,3.20
2023-01-07T03:17:10.161Z,3.20
2023-01-07T03:19:43.836Z,3.20
2023-01-07T03:22:12.932Z,3.20
2023-01-07T03:24:42.122Z,3.20
2023-01-07T03:27:10.470Z,3.20
2023-01-07T03:29:38.590Z,3.20
2023-01-07T03:32:12.719Z,3.10
2023-01-07T03:34:43.687Z,3.20
2023-01-07T03:37:14.276Z,3.20
2023-01-07T03:39:46.081Z,3.10
2023-01-07T03:42:33.201Z,3.20
2023-01-07T03:45:01.733Z,3.10
2023-01-07T03:47:30.349Z,3.10
2023-01-07T03:49:59.703Z,3.20
2023-01-07T03:52:27.672Z,3.20
2023-01-07T03:54:55.705Z,3.10
2023-01-07T03:57:23.668Z,3.20
2023-01-07T03:59:51.658Z,3.20
2023-01-07T04:02:19.656Z,3.30
2023-01-07T04:04:47.881Z,3.30
2023-01-07T04:07:17.234Z,3.20
2023-01-07T04:09:47.226Z,3.20
2023-01-07T04:12:15.226Z,3.10
2023-01-07T04:14:43.355Z,3.20
2023-01-07T04:17:11.385Z,3.20
2023-01-07T04:19:40.331Z,3.20
2023-01-07T04:22:08.650Z,3.20
2023-01-07T04:24:39.175Z,3.20
2023-01-07T04:27:07.293Z,3.20
2023-01-07T04:29:35.282Z,3.10
2023-01-07T04:32:03.395Z,3.10
2023-01-07T04:34:31.504Z,3.10
2023-01-07T04:36:59.491Z,3.10
2023-01-07T04:39:27.537Z,3.10
2023-01-07T04:41:56.884Z,3.10
2023-01-07T04:44:24.906Z,3.00
2023-01-07T04:46:52.882Z,3.10
2023-01-07T04:49:21.097Z,3.00
2023-01-07T04:51:49.083Z,3.00
2023-01-07T04:54:17.113Z,3.00
2023-01-07T04:56:45.735Z,3.00
2023-01-07T04:59:15.109Z,3.00
2023-01-07T05:01:43.244Z,3.00
2023-01-07T05:04:11.547Z,2.90
2023-01-07T05:06:39.550Z,2.90
2023-01-07T05:09:07.698Z,2.90
2023-01-07T05:11:35.695Z,2.90
2023-01-07T05:14:04.109Z,2.90
2023-01-07T05:16:33.474Z,2.90
2023-01-07T05:19:01.533Z,2.80
2023-01-07T05:21:29.520Z,2.90
2023-01-07T05:23:57.515Z,2.80
2023-01-07T05:26:25.495Z,2.90
2023-01-07T05:28:53.485Z,2.90
2023-01-07T05:31:21.661Z,2.90
2023-01-07T05:33:51.120Z,2.80
2023-01-07T05:36:19.105Z,2.80
2023-01-07T05:38:47.134Z,2.80
2023-01-07T05:41:15.106Z,2.90
2023-01-07T05:43:43.227Z,2.90
2023-01-07T05:46:11.250Z,2.90
2023-01-07T05:48:39.461Z,2.90
2023-01-07T05:51:08.895Z,2.80
2023-01-07T05:53:37.197Z,2.80
2023-01-07T05:56:05.767Z,2.80
2023-01-07T05:58:33.803Z,2.80
2023-01-07T06:01:01.889Z,2.80
2023-01-07T06:03:29.954Z,2.80
2023-01-07T06:05:57.993Z,2.80
2023-01-07T06:08:27.302Z,2.80
2023-01-07T06:10:55.660Z,2.70
2023-01-07T06:13:25.679Z,2.80
2023-01-07T06:15:54.145Z,2.70
2023-01-07T06:18:22.169Z,2.70
2023-01-07T06:20:53.526Z,2.70
2023-01-07T06:23:21.688Z,2.70
2023-01-07T06:25:51.334Z,2.70
2023-01-07T06:28:19.339Z,2.70
2023-01-07T06:30:47.671Z,2.70
2023-01-07T06:33:15.915Z,2.70
2023-01-07T06:35:45.465Z,2.70
2023-01-07T06:38:13.687Z,2.70
2023-01-07T06:40:41.875Z,2.70
2023-01-07T06:43:11.238Z,2.70
2023-01-07T06:45:41.444Z,2.70
2023-01-07T06:48:09.667Z,2.70
2023-01-07T06:50:37.649Z,2.70
2023-01-07T06:53:05.739Z,2.70
2023-01-07T06:55:33.754Z,2.70
2023-01-07T06:58:01.709Z,2.70
2023-01-07T07:00:31.146Z,2.80
2023-01-07T07:02:59.207Z,2.80
2023-01-07T07:05:28.015Z,2.70
2023-01-07T07:07:56.130Z,2.80
2023-01-07T07:10:24.178Z,2.80
2023-01-07T07:12:52.163Z,2.80
2023-01-07T07:15:20.421Z,2.80
2023-01-07T07:17:49.834Z,2.70
2023-01-07T07:20:17.955Z,2.70
2023-01-07T07:22:46.844Z,2.80
2023-01-07T07:25:15.734Z,2.70
2023-01-07T07:27:46.295Z,2.80
2023-01-07T07:30:15.519Z,2.80
2023-01-07T07:32:44.065Z,2.80
2023-01-07T07:35:14.013Z,2.80
2023-01-07T07:37:42.049Z,2.80
2023-01-07T07:40:11.217Z,2.70
2023-01-07T07:43:10.577Z,2.80
2023-01-07T07:45:27.872Z,2.80
2023-01-07T07:47:55.829Z,2.80
2023-01-07T07:50:25.136Z,2.80
2023-01-07T07:52:53.143Z,2.80
2023-01-07T07:55:26.150Z,2.80
2023-01-07T07:57:54.823Z,2.80
2023-01-07T08:00:24.578Z,2.80
2023-01-07T08:02:52.537Z,2.90
2023-01-07T08:05:20.592Z,2.80
2023-01-07T08:07:50.054Z,2.80
2023-01-07T08:10:18.234Z,2.80
2023-01-07T08:12:46.204Z,2.80
2023-01-07T08:15:14.635Z,2.80
2023-01-07T08:17:42.628Z,2.80
2023-01-07T08:20:11.809Z,2.80
2023-01-07T08:22:39.825Z,2.80
2023-01-07T08:25:10.599Z,2.80
2023-01-07T08:27:38.566Z,2.80
2023-01-07T08:30:07.335Z,2.90
2023-01-07T08:32:37.306Z,2.90
2023-01-07T08:35:06.065Z,2.90
2023-01-07T08:37:34.065Z,2.90
2023-01-07T08:40:05.804Z,3.00
2023-01-07T08:42:35.446Z,2.90
2023-01-07T08:45:04.355Z,3.00
2023-01-07T08:47:32.368Z,3.00
2023-01-07T08:50:00.574Z,3.00
2023-01-07T08:52:28.530Z,3.00
2023-01-07T08:54:56.543Z,3.00
2023-01-07T08:57:24.525Z,3.00
2023-01-07T08:59:53.955Z,3.00
2023-01-07T09:02:21.963Z,3.00
2023-01-07T09:04:50.051Z,3.10
2023-01-07T09:07:18.052Z,3.10
2023-01-07T09:09:48.011Z,3.10
2023-01-07T09:12:15.983Z,3.10
2023-01-07T09:14:44.051Z,3.20
2023-01-07T09:17:13.345Z,3.20
2023-01-07T09:19:41.363Z,3.30
2023-01-07T09:22:09.405Z,3.30
2023-01-07T09:24:37.476Z,3.30
2023-01-07T09:27:05.528Z,3.40
2023-01-07T09:29:33.503Z,3.40
2023-01-07T09:32:01.495Z,3.50
2023-01-07T09:34:32.172Z,3.50
2023-01-07T09:37:00.175Z,3.60
2023-01-07T09:39:28.386Z,3.60
2023-01-07T09:42:02.045Z,3.70
2023-01-07T09:44:46.438Z,3.70
2023-01-07T09:47:16.910Z,3.80
2023-01-07T09:49:52.023Z,3.80
2023-01-07T09:52:27.399Z,3.80
2023-01-07T09:55:01.746Z,3.90
2023-01-07T09:57:29.887Z,3.90
2023-01-07T09:59:58.290Z,4.00
2023-01-07T10:02:37.992Z,4.00
2023-01-07T10:05:21.357Z,4.00
2023-01-07T10:08:31.018Z,4.00
2023-01-07T10:10:52.919Z,4.10
2023-01-07T10:13:45.715Z,4.10
2023-01-07T10:16:21.447Z,4.10
2023-01-07T10:18:59.743Z,4.20
2023-01-07T10:21:38.626Z,4.20
2023-01-07T10:24:13.947Z,4.20
2023-01-07T10:26:46.270Z,4.20
2023-01-07T10:29:18.389Z,4.30
2023-01-07T10:31:48.028Z,4.30
2023-01-07T10:34:20.512Z,4.30
2023-01-07T10:37:01.006Z,4.40
2023-01-07T10:39:40.715Z,4.40
2023-01-07T10:42:15.497Z,4.40
2023-01-07T10:45:01.351Z,4.50
2023-01-07T10:47:41.062Z,4.50
2023-01-07T10:50:24.822Z,4.60
2023-01-07T10:53:02.627Z,4.60
2023-01-07T10:55:43.408Z,4.60
2023-01-07T10:58:12.451Z,4.60
2023-01-07T11:00:41.333Z,4.70
2023-01-07T11:03:19.619Z,4.80
2023-01-07T11:05:51.176Z,4.80
2023-01-07T11:08:31.096Z,4.90
2023-01-07T11:10:59.935Z,4.90
2023-01-07T11:13:31.500Z,5.00
2023-01-07T11:16:07.990Z,5.00
2023-01-07T11:18:46.042Z,5.00
2023-01-07T11:21:42.648Z,5.10
2023-01-07T11:24:33.669Z,5.10
2023-01-07T11:27:05.587Z,5.20
2023-01-07T11:29:42.282Z,5.20
2023-01-07T11:32:21.384Z,5.20
2023-01-07T11:34:56.901Z,5.30
2023-01-07T11:37:39.268Z,5.30
2023-01-07T11:40:22.704Z,5.30
2023-01-07T11:42:53.627Z,5.30
2023-01-07T11:45:23.977Z,5.40
2023-01-07T11:48:00.011Z,5.40
2023-01-07T11:50:36.134Z,5.40
2023-01-07T11:53:24.654Z,5.50
2023-01-07T11:56:03.083Z,5.60
2023-01-07T11:58:33.655Z,5.60
2023-01-07T12:01:16.811Z,5.60
2023-01-07T12:03:46.483Z,5.70
2023-01-07T12:06:21.039Z,5.70
2023-01-07T12:08:56.128Z,5.70
2023-01-07T12:11:32.381Z,5.80
2023-01-07T12:14:08.624Z,5.80
2023-01-07T12:16:37.193Z,5.80
2023-01-07T12:19:31.492Z,5.90
2023-01-07T12:22:14.034Z,5.90
2023-01-07T12:25:04.962Z,5.90
2023-01-07T12:27:42.888Z,6.00
2023-01-07T12:30:30.748Z,6.00
2023-01-07T12:33:12.455Z,6.00
2023-01-07T12:35:43.229Z,6.00
2023-01-07T12:38:14.739Z,6.00
2023-01-07T12:40:48.549Z,6.10
2023-01-07T12:43:26.197Z,6.10
2023-01-07T12:45:56.580Z,6.20
2023-01-07T12:48:31.954Z,6.20
2023-01-07T12:51:03.188Z,6.30
2023-01-07T12:53:37.571Z,6.30
2023-01-07T12:56:11.591Z,6.40
2023-01-07T12:58:47.073Z,6.40
2023-01-07T13:01:29.557Z,6.50
2023-01-07T13:04:13.097Z,6.60
2023-01-07T13:06:47.107Z,6.60
2023-01-07T13:09:25.941Z,6.70
2023-01-07T13:12:41.883Z,6.70
2023-01-07T13:15:13.919Z,6.70
2023-01-07T13:17:43.355Z,6.70
2023-01-07T13:20:14.174Z,6.80
2023-01-07T13:22:45.844Z,6.80
2023-01-07T13:25:29.614Z,6.80
2023-01-07T13:28:20.243Z,6.80
2023-01-07T13:31:05.145Z,6.80
2023-01-07T13:33:42.608Z,6.80
2023-01-07T13:36:21.563Z,6.80
2023-01-07T13:39:07.285Z,6.80
2023-01-07T13:41:50.162Z,6.80
2023-01-07T13:44:51.078Z,6.80
2023-01-07T13:47:24.475Z,6.80
2023-01-07T13:49:57.717Z,6.80
2023-01-07T13:52:29.042Z,6.90
2023-01-07T13:54:59.380Z,6.80
2023-01-07T13:57:47.021Z,6.80
2023-01-07T14:00:41.376Z,6.70
2023-01-07T14:03:35.105Z,6.70
2023-01-07T14:06:43.032Z,6.70
2023-01-07T14:09:28.954Z,6.60
2023-01-07T14:12:18.533Z,6.60
2023-01-07T14:14:53.290Z,6.60
2023-01-07T14:17:29.453Z,6.60
2023-01-07T14:20:08.426Z,6.60
2023-01-07T14:22:45.618Z,6.60
2023-01-07T14:25:47.951Z,6.50
2023-01-07T14:28:51.458Z,6.50
2023-01-07T14:31:24.047Z,6.50
2023-01-07T14:33:58.107Z,6.40
2023-01-07T14:37:11.629Z,6.40
2023-01-07T14:39:40.928Z,6.40
2023-01-07T14:42:48.959Z,6.40
2023-01-07T14:45:54.299Z,6.30
2023-01-07T14:48:38.158Z,6.30
2023-01-07T14:51:38.833Z,6.30
2023-01-07T14:54:30.135Z,6.30
2023-01-07T14:57:07.918Z,6.20
2023-01-07T14:59:53.929Z,6.20
2023-01-07T15:02:54.618Z,6.20
2023-01-07T15:05:51.534Z,6.10
2023-01-07T15:08:39.036Z,6.10
2023-01-07T15:11:35.814Z,6.10
2023-01-07T15:14:25.325Z,6.00
2023-01-07T15:16:54.079Z,6.00
2023-01-07T15:19:22.403Z,6.00
2023-01-07T15:22:00.406Z,5.90
2023-01-07T15:24:39.019Z,5.90
2023-01-07T15:27:15.782Z,5.90
2023-01-07T15:29:55.267Z,5.80
2023-01-07T15:32:39.588Z,5.80
2023-01-07T15:35:18.707Z,5.80
2023-01-07T15:37:48.619Z,5.80
2023-01-07T15:40:18.974Z,5.70
2023-01-07T15:42:51.563Z,5.70
2023-01-07T15:45:22.581Z,5.70
2023-01-07T15:47:51.816Z,5.70
2023-01-07T15:50:29.742Z,5.60
2023-01-07T15:52:59.999Z,5.60
2023-01-07T15:55:31.035Z,5.50
2023-01-07T15:58:04.076Z,5.50
2023-01-07T16:00:32.428Z,5.50
2023-01-07T16:03:01.634Z,5.40
2023-01-07T16:05:29.870Z,5.40
2023-01-07T16:07:59.046Z,5.30
2023-01-07T16:10:30.069Z,5.30
2023-01-07T16:13:01.135Z,5.30
2023-01-07T16:15:33.675Z,5.20
2023-01-07T16:18:03.243Z,5.20
2023-01-07T16:20:34.601Z,5.30
2023-01-07T16:23:19.238Z,5.30
2023-01-07T16:25:50.337Z,5.20
2023-01-07T16:28:21.945Z,5.20
2023-01-07T16:30:52.622Z,5.20
2023-01-07T16:33:23.087Z,5.10
2023-01-07T16:35:53.838Z,5.10
2023-01-07T16:38:22.466Z,5.10
2023-01-07T16:40:51.877Z,5.10
2023-01-07T16:43:44.130Z,5.10
2023-01-07T16:46:24.556Z,5.10
2023-01-07T16:49:21.575Z,5.00
2023-01-07T16:51:51.309Z,5.00
2023-01-07T16:54:34.324Z,5.00
2023-01-07T16:57:04.157Z,4.90
2023-01-07T16:59:34.376Z,4.90
2023-01-07T17:02:13.944Z,4.90
2023-01-07T17:04:42.136Z,4.90
2023-01-07T17:07:20.512Z,4.80
2023-01-07T17:09:48.732Z,4.80
2023-01-07T17:12:30.907Z,4.80
2023-01-07T17:14:58.977Z,4.70
2023-01-07T17:17:32.230Z,4.70
2023-01-07T17:20:19.850Z,4.70
2023-01-07T17:22:49.550Z,4.70
2023-01-07T17:25:25.319Z,4.70
2023-01-07T17:27:57.085Z,4.60
2023-01-07T17:30:32.500Z,4.60
2023-01-07T17:33:01.914Z,4.60
2023-01-07T17:35:31.998Z,4.60
2023-01-07T17:38:00.875Z,4.60
2023-01-07T17:40:28.922Z,4.50
2023-01-07T17:43:14.869Z,4.50
2023-01-07T17:45:43.985Z,4.40
2023-01-07T17:48:15.672Z,4.40
2023-01-07T17:50:44.357Z,4.40
2023-01-07T17:53:22.411Z,4.40
2023-01-07T17:55:50.444Z,4.30
2023-01-07T17:58:27.630Z,4.30
2023-01-07T18:00:56.510Z,4.30
2023-01-07T18:03:26.327Z,4.30
2023-01-07T18:05:54.563Z,4.30
2023-01-07T18:08:22.558Z,4.30
2023-01-07T18:11:09.683Z,4.30
2023-01-07T18:13:38.078Z,4.30
2023-01-07T18:16:06.878Z,4.30
2023-01-07T18:18:36.229Z,4.20
2023-01-07T18:21:04.256Z,4.30
2023-01-07T18:23:32.281Z,4.30
2023-01-07T18:26:00.383Z,4.30
2023-01-07T18:28:28.500Z,4.30
2023-01-07T18:30:56.460Z,4.20
2023-01-07T18:33:24.575Z,4.20
2023-01-07T18:35:53.917Z,4.20
2023-01-07T18:38:22.051Z,4.20
2023-01-07T18:40:50.177Z,4.20
2023-01-07T18:43:19.731Z,4.10
2023-01-07T18:45:48.998Z,4.10
2023-01-07T18:48:18.853Z,4.10
2023-01-07T18:50:49.011Z,4.00
2023-01-07T18:53:19.403Z,4.00
2023-01-07T18:55:47.473Z,4.00
2023-01-07T18:58:16.623Z,4.00
2023-01-07T19:00:44.579Z,4.00
2023-01-07T19:03:14.063Z,4.00
2023-01-07T19:05:42.102Z,4.00
2023-01-07T19:08:10.072Z,4.00
2023-01-07T19:10:42.427Z,4.10
2023-01-07T19:13:10.471Z,4.10
2023-01-07T19:15:40.049Z,4.10
2023-01-07T19:18:08.699Z,4.00
2023-01-07T19:20:36.756Z,3.90
2023-01-07T19:23:04.790Z,3.90
2023-01-07T19:25:33.045Z,3.90
2023-01-07T19:28:02.334Z,3.90
2023-01-07T19:30:30.309Z,3.90
2023-01-07T19:32:59.544Z,3.90
2023-01-07T19:35:28.031Z,3.80
2023-01-07T19:37:55.988Z,3.80
2023-01-07T19:40:24.064Z,3.80
2023-01-07T19:42:52.042Z,3.80
2023-01-07T19:45:21.479Z,3.80
2023-01-07T19:47:49.495Z,3.70
2023-01-07T19:50:17.560Z,3.70
2023-01-07T19:52:45.553Z,3.70
2023-01-07T19:55:14.983Z,3.70
2023-01-07T19:57:42.920Z,3.70
2023-01-07T20:00:12.264Z,3.60
2023-01-07T20:02:41.599Z,3.70
2023-01-07T20:05:10.243Z,3.70
2023-01-07T20:07:38.155Z,3.60
2023-01-07T20:10:06.862Z,3.60
2023-01-07T20:12:34.863Z,3.70
2023-01-07T20:15:02.911Z,3.70
2023-01-07T20:17:30.878Z,3.70
2023-01-07T20:20:00.199Z,3.70
2023-01-07T20:22:28.583Z,3.70
2023-01-07T20:24:56.756Z,3.70
2023-01-07T20:27:24.840Z,3.80
2023-01-07T20:29:52.859Z,3.80
2023-01-07T20:32:20.852Z,3.80
2023-01-07T20:34:48.952Z,3.80
2023-01-07T20:37:19.787Z,3.60
2023-01-07T20:39:47.788Z,3.70
2023-01-07T20:42:15.759Z,3.70
2023-01-07T20:44:43.805Z,3.70
2023-01-07T20:47:11.765Z,3.70
2023-01-07T20:49:39.726Z,3.70
2023-01-07T20:52:07.856Z,3.70
2023-01-07T20:54:37.260Z,3.60
2023-01-07T20:57:05.410Z,3.50
2023-01-07T20:59:33.397Z,3.50
2023-01-07T21:02:01.553Z,3.50
2023-01-07T21:04:29.780Z,3.50
2023-01-07T21:06:57.793Z,3.50
2023-01-07T21:09:25.834Z,3.50
2023-01-07T21:11:55.145Z,3.50
2023-01-07T21:14:23.154Z,3.50
2023-01-07T21:16:51.172Z,3.50
2023-01-07T21:19:19.387Z,3.40
2023-01-07T21:21:48.657Z,3.40
2023-01-07T21:24:17.555Z,3.30
2023-01-07T21:26:45.602Z,3.40
2023-01-07T21:29:16.078Z,3.40
2023-01-07T21:31:45.333Z,3.50
2023-01-07T21:34:15.412Z,3.50
2023-01-07T21:36:43.408Z,3.50
2023-01-07T21:39:13.127Z,3.50
2023-01-07T21:41:41.233Z,3.40
2023-01-07T21:44:11.293Z,3.30
2023-01-07T21:46:40.709Z,3.00
2023-01-07T21:49:08.774Z,3.00
2023-01-07T21:51:36.742Z,3.20
2023-01-07T21:54:07.104Z,3.30
2023-01-07T21:56:35.923Z,3.40
2023-01-07T21:59:03.930Z,3.40
2023-01-07T22:01:32.036Z,3.30
2023-01-07T22:04:02.050Z,3.00
2023-01-07T22:06:31.726Z,3.00
2023-01-07T22:09:02.100Z,3.20
2023-01-07T22:11:30.339Z,3.30
2023-01-07T22:14:00.223Z,3.40
2023-01-07T22:16:31.000Z,3.40
2023-01-07T22:18:59.268Z,3.40
2023-01-07T22:21:28.842Z,3.40
2023-01-07T22:23:57.011Z,3.40
2023-01-07T22:26:25.318Z,3.40
2023-01-07T22:28:55.231Z,3.40
2023-01-07T22:31:25.175Z,3.40
2023-01-07T22:33:55.118Z,3.40
2023-01-07T22:36:29.890Z,3.30
2023-01-07T22:39:03.599Z,3.40
2023-01-07T22:41:34.884Z,3.40
2023-01-07T22:44:07.269Z,3.40
2023-01-07T22:46:37.885Z,3.50
2023-01-07T22:49:06.453Z,3.50
2023-01-07T22:51:40.532Z,3.50
2023-01-07T22:54:10.211Z,3.50
2023-01-07T22:56:39.027Z,3.50
2023-01-07T22:59:09.050Z,3.50
2023-01-07T23:01:37.930Z,3.50
2023-01-07T23:04:06.194Z,3.50
2023-01-07T23:06:34.647Z,3.40
2023-01-07T23:09:02.667Z,3.40
2023-01-07T23:11:51.832Z,3.40
2023-01-07T23:14:23.155Z,3.40
2023-01-07T23:16:52.491Z,3.50
2023-01-07T23:19:21.484Z,3.50
2023-01-07T23:21:52.065Z,3.50
2023-01-07T23:24:20.764Z,3.50
2023-01-07T23:26:51.748Z,3.50
2023-01-07T23:29:20.625Z,3.50
2023-01-07T23:31:48.705Z,3.40
2023-01-07T23:34:17.533Z,3.40
2023-01-07T23:36:45.611Z,3.40
2023-01-07T23:39:14.042Z,3.40
2023-01-07T23:41:42.101Z,3.50
2023-01-07T23:44:11.780Z,3.50
2023-01-07T23:46:39.871Z,3.20
2023-01-07T23:49:07.941Z,3.20
2023-01-07T23:51:36.037Z,3.10
2023-01-07T23:54:04.074Z,3.20
2023-01-07T23:56:32.197Z,3.40
2023-01-07T23:59:02.819Z,3.50
